createdAt,value
2023-03-12T13:03:01.630Z,3.40
2023-03-12T13:06:05.379Z,2.83
2023-03-12T13:09:14.858Z,2.70
2023-03-12T13:12:22.102Z,2.28
2023-03-12T13:15:29.726Z,1.80
2023-03-12T13:18:32.386Z,1.95
2023-03-12T13:21:58.174Z,1.75
2023-03-12T13:25:22.902Z,1.50
2023-03-12T13:28:30.233Z,1.98
2023-03-12T13:31:31.783Z,1.42
2023-03-12T13:34:45.552Z,2.03
2023-03-12T13:37:47.063Z,1.60
2023-03-12T13:41:02.068Z,1.30
2023-03-12T13:44:37.693Z,1.67
2023-03-12T13:47:42.621Z,1.77
2023-03-12T13:50:52.864Z,1.63
2023-03-12T13:53:59.196Z,1.50
2023-03-12T13:57:11.961Z,1.50
2023-03-12T14:00:33.145Z,1.80
2023-03-12T14:03:41.652Z,1.45
2023-03-12T14:07:16.062Z,1.20
2023-03-12T14:10:17.542Z,1.23
2023-03-12T14:13:46.026Z,1.30
2023-03-12T14:16:51.235Z,1.20
2023-03-12T14:19:57.356Z,1.23
2023-03-12T14:23:05.930Z,1.35
2023-03-12T14:26:08.473Z,1.20
2023-03-12T14:29:20.298Z,1.30
2023-03-12T14:32:32.416Z,1.27
2023-03-12T14:35:41.619Z,1.30
2023-03-12T14:38:45.156Z,1.40
2023-03-12T14:41:54.973Z,1.20
2023-03-12T14:45:10.872Z,0.90
2023-03-12T14:48:12.336Z,1.40
2023-03-12T14:51:24.393Z,1.83
2023-03-12T14:54:27.864Z,2.33
2023-03-12T14:57:29.354Z,1.95
2023-03-12T15:00:30.914Z,2.13
2023-03-12T15:03:43.143Z,5.88
2023-03-12T15:06:48.139Z,4.57
2023-03-12T15:09:51.694Z,5.07
2023-03-12T15:12:56.594Z,5.32
2023-03-12T15:15:58.305Z,5.07
2023-03-12T15:19:01.527Z,5.10
2023-03-12T15:22:04.086Z,5.28
2023-03-12T15:25:31.926Z,4.88
2023-03-12T15:28:33.424Z,4.95
2023-03-12T15:31:48.878Z,5.22
2023-03-12T15:34:55.513Z,4.72
2023-03-12T15:37:58.116Z,4.50
2023-03-12T15:41:07.573Z,5.10
2023-03-12T15:44:17.951Z,4.95
2023-03-12T15:47:28.439Z,4.68
2023-03-12T15:50:33.812Z,4.65
2023-03-12T15:53:35.303Z,4.35
2023-03-12T15:56:37.033Z,4.50
2023-03-12T15:59:38.625Z,4.47
2023-03-12T16:02:47.838Z,4.40
2023-03-12T16:05:50.545Z,4.22
2023-03-12T16:08:56.307Z,4.13
2023-03-12T16:11:57.931Z,4.20
2023-03-12T16:14:59.791Z,4.13
2023-03-12T16:18:01.497Z,4.65
2023-03-12T16:21:03.186Z,4.32
2023-03-12T16:24:04.945Z,4.10
2023-03-12T16:27:14.020Z,3.83
2023-03-12T16:30:27.661Z,4.03
2023-03-12T16:33:29.215Z,4.10
2023-03-12T16:36:30.684Z,3.70
2023-03-12T16:39:33.173Z,3.10
2023-03-12T16:42:35.269Z,3.00
2023-03-12T16:45:37.424Z,4.05
2023-03-12T16:48:39.159Z,4.32
2023-03-12T16:51:40.648Z,4.60
2023-03-12T16:54:42.118Z,4.55
2023-03-12T16:58:01.350Z,4.30
2023-03-12T17:01:03.240Z,4.15
2023-03-12T17:04:04.888Z,4.35
2023-03-12T17:07:06.452Z,4.03
2023-03-12T17:10:10.368Z,4.40
2023-03-12T17:13:18.814Z,3.95
2023-03-12T17:16:20.427Z,3.90
2023-03-12T17:19:21.909Z,3.80
2023-03-12T17:22:23.369Z,4.05
2023-03-12T17:25:30.951Z,4.20
2023-03-12T17:28:32.544Z,3.85
2023-03-12T17:31:35.492Z,3.65
2023-03-12T17:34:37.230Z,3.70
2023-03-12T17:37:38.686Z,4.05
2023-03-12T17:40:42.107Z,3.85
2023-03-12T17:43:43.635Z,3.63
2023-03-12T17:46:58.401Z,3.55
2023-03-12T17:50:00.437Z,3.80
2023-03-12T17:53:02.105Z,3.80
2023-03-12T17:56:03.725Z,3.42
2023-03-12T17:59:05.244Z,3.67
2023-03-12T18:02:07.097Z,3.60
2023-03-12T18:05:10.685Z,3.70
2023-03-12T18:08:12.201Z,3.85
2023-03-12T18:11:13.663Z,3.50
2023-03-12T18:14:15.186Z,3.47
2023-03-12T18:17:16.653Z,3.25
2023-03-12T18:20:28.691Z,3.42
2023-03-12T18:23:33.797Z,3.40
2023-03-12T18:26:35.320Z,3.60
2023-03-12T18:29:36.905Z,3.58
2023-03-12T18:32:39.442Z,3.55
2023-03-12T18:35:40.977Z,3.20
2023-03-12T18:38:42.428Z,3.28
2023-03-12T18:41:43.991Z,3.22
2023-03-12T18:44:45.493Z,3.40
2023-03-12T18:47:50.127Z,3.28
2023-03-12T18:50:51.613Z,3.08
2023-03-12T18:53:53.074Z,3.20
2023-03-12T18:56:54.705Z,3.42
2023-03-12T18:59:56.488Z,3.00
2023-03-12T19:02:58.027Z,3.30
2023-03-12T19:06:07.024Z,3.15
2023-03-12T19:09:09.717Z,4.25
2023-03-12T19:12:11.347Z,3.60
2023-03-12T19:15:12.802Z,4.10
2023-03-12T19:18:14.376Z,4.15
2023-03-12T19:21:17.053Z,4.60
2023-03-12T19:24:18.580Z,5.57
2023-03-12T19:27:20.047Z,5.65
2023-03-12T19:30:22.091Z,5.32
2023-03-12T19:33:23.837Z,5.10
2023-03-12T19:36:25.314Z,4.90
2023-03-12T19:39:26.790Z,4.97
2023-03-12T19:42:28.329Z,4.72
2023-03-12T19:45:29.954Z,4.75
2023-03-12T19:48:31.732Z,4.13
2023-03-12T19:51:33.200Z,4.43
2023-03-12T19:54:34.648Z,4.32
2023-03-12T19:57:36.080Z,4.10
2023-03-12T20:00:37.617Z,3.92
2023-03-12T20:03:43.628Z,3.72
2023-03-12T20:06:45.757Z,4.03
2023-03-12T20:09:47.369Z,4.13
2023-03-12T20:12:48.908Z,3.45
2023-03-12T20:15:50.382Z,3.88
2023-03-12T20:18:51.858Z,3.42
2023-03-12T20:21:54.926Z,3.53
2023-03-12T20:24:56.396Z,3.42
2023-03-12T20:27:58.363Z,2.92
2023-03-12T20:31:13.605Z,3.20
2023-03-12T20:34:15.046Z,2.97
2023-03-12T20:37:17.926Z,3.22
2023-03-12T20:40:19.592Z,2.85
2023-03-12T20:43:21.043Z,3.00
2023-03-12T20:46:22.515Z,3.03
2023-03-12T20:49:24.012Z,3.10
2023-03-12T20:52:25.495Z,2.80
2023-03-12T20:55:27.002Z,2.70
2023-03-12T20:58:28.474Z,3.10
2023-03-12T21:01:30.103Z,2.85
2023-03-12T21:04:31.614Z,2.92
2023-03-12T21:07:33.058Z,2.85
2023-03-12T21:10:38.570Z,2.60
2023-03-12T21:13:40.029Z,2.53
2023-03-12T21:16:41.567Z,2.70
2023-03-12T21:19:43.799Z,2.70
2023-03-12T21:22:46.833Z,2.70
2023-03-12T21:25:48.298Z,2.60
2023-03-12T21:28:49.750Z,2.60
2023-03-12T21:31:53.808Z,2.90
2023-03-12T21:34:55.284Z,2.40
2023-03-12T21:37:56.854Z,2.80
2023-03-12T21:41:04.888Z,2.80
2023-03-12T21:44:06.514Z,2.60
2023-03-12T21:47:08.022Z,2.47
2023-03-12T21:50:10.736Z,2.60
2023-03-12T21:53:23.300Z,2.60
2023-03-12T21:56:28.063Z,2.63
2023-03-12T21:59:29.743Z,2.40
2023-03-12T22:02:31.926Z,2.40
2023-03-12T22:05:33.358Z,2.55
2023-03-12T22:08:35.150Z,2.50
2023-03-12T22:11:36.663Z,2.55
2023-03-12T22:14:38.178Z,2.58
2023-03-12T22:17:39.686Z,2.30
2023-03-12T22:20:41.197Z,2.20
2023-03-12T22:23:42.823Z,2.38
2023-03-12T22:26:45.727Z,2.22
2023-03-12T22:29:47.191Z,2.08
2023-03-12T22:32:48.673Z,2.70
2023-03-12T22:35:50.264Z,2.75
2023-03-12T22:38:52.068Z,2.20
2023-03-12T22:41:53.626Z,2.08
2023-03-12T22:44:55.231Z,2.00
2023-03-12T22:47:56.731Z,2.30
2023-03-12T22:50:58.354Z,2.58
2023-03-12T22:54:00.210Z,2.85
2023-03-12T22:57:01.743Z,2.58
2023-03-12T23:00:07.498Z,2.28
2023-03-12T23:03:09.022Z,2.35
2023-03-12T23:06:13.674Z,2.50
2023-03-12T23:09:15.111Z,2.50
2023-03-12T23:12:16.606Z,1.95
2023-03-12T23:15:18.413Z,2.45
2023-03-12T23:18:21.330Z,2.25
2023-03-12T23:21:23.789Z,2.10
2023-03-12T23:24:25.256Z,2.05
2023-03-12T23:27:26.719Z,2.20
2023-03-12T23:30:28.174Z,1.90
2023-03-12T23:33:30.519Z,2.10
2023-03-12T23:36:32.187Z,1.90
2023-03-12T23:39:42.109Z,2.13
2023-03-12T23:42:49.917Z,2.00
2023-03-12T23:45:58.689Z,1.85
2023-03-12T23:49:00.235Z,1.90
2023-03-12T23:52:01.661Z,2.08
2023-03-12T23:55:03.264Z,1.88
2023-03-12T23:58:04.762Z,1.77
